createdAt,value
2023-05-19T00:01:21.551Z,76.30
2023-05-19T00:04:02.509Z,76.10
2023-05-19T00:06:31.970Z,76.00
2023-05-19T00:09:08.160Z,76.20
2023-05-19T00:11:36.882Z,75.90
2023-05-19T00:14:09.390Z,76.20
2023-05-19T00:16:38.125Z,76.20
2023-05-19T00:19:06.704Z,76.20
2023-05-19T00:21:33.904Z,76.10
2023-05-19T00:24:01.298Z,76.50
2023-05-19T00:26:28.454Z,76.90
2023-05-19T00:28:55.645Z,76.70
2023-05-19T00:31:22.814Z,76.60
2023-05-19T00:33:50.094Z,76.50
2023-05-19T00:36:17.374Z,77.00
2023-05-19T00:38:44.473Z,76.40
2023-05-19T00:41:11.850Z,76.80
2023-05-19T00:43:38.990Z,76.80
2023-05-19T00:46:07.404Z,76.70
2023-05-19T00:48:34.616Z,76.90
2023-05-19T00:51:06.266Z,76.90
2023-05-19T00:53:34.703Z,77.00
2023-05-19T00:56:02.737Z,77.00
2023-05-19T00:58:32.442Z,77.30
2023-05-19T01:01:03.509Z,77.50
2023-05-19T01:03:36.080Z,77.60
2023-05-19T01:06:07.037Z,77.60
2023-05-19T01:08:36.200Z,77.60
2023-05-19T01:11:07.440Z,77.40
2023-05-19T01:13:39.780Z,77.80
2023-05-19T01:16:22.217Z,77.90
2023-05-19T01:19:12.526Z,77.80
2023-05-19T01:22:03.094Z,77.50
2023-05-19T01:25:13.220Z,77.20
2023-05-19T01:27:59.224Z,77.00
2023-05-19T01:30:36.760Z,76.80
2023-05-19T01:33:07.699Z,76.70
2023-05-19T01:35:37.132Z,76.70
2023-05-19T01:38:07.447Z,76.70
2023-05-19T01:40:36.057Z,76.80
2023-05-19T01:43:04.286Z,78.20
2023-05-19T01:45:33.593Z,78.90
2023-05-19T01:48:03.201Z,78.80
2023-05-19T01:50:31.094Z,78.60
2023-05-19T01:52:59.158Z,78.70
2023-05-19T01:55:26.649Z,79.00
2023-05-19T01:58:17.206Z,78.90
2023-05-19T02:01:02.491Z,79.00
2023-05-19T02:04:05.912Z,79.20
2023-05-19T02:06:51.517Z,79.30
2023-05-19T02:10:04.414Z,79.30
2023-05-19T02:12:40.612Z,79.00
2023-05-19T02:15:10.931Z,78.80
2023-05-19T02:17:47.553Z,78.90
2023-05-19T02:20:18.537Z,78.60
2023-05-19T02:22:45.912Z,78.50
2023-05-19T02:25:13.266Z,78.60
2023-05-19T02:27:41.035Z,78.50
2023-05-19T02:30:09.706Z,78.30
2023-05-19T02:32:37.184Z,78.20
2023-05-19T02:35:04.815Z,78.60
2023-05-19T02:37:32.489Z,79.00
2023-05-19T02:39:59.717Z,78.80
2023-05-19T02:42:26.805Z,78.60
2023-05-19T02:44:55.328Z,78.40
2023-05-19T02:47:22.785Z,78.90
2023-05-19T02:49:50.102Z,78.10
2023-05-19T02:52:17.324Z,77.90
2023-05-19T02:54:44.619Z,77.80
2023-05-19T02:57:11.785Z,77.80
2023-05-19T02:59:38.880Z,77.70
2023-05-19T03:02:06.135Z,77.50
2023-05-19T03:04:33.353Z,77.40
2023-05-19T03:07:00.453Z,77.40
2023-05-19T03:09:27.544Z,77.30
2023-05-19T03:11:54.694Z,77.50
2023-05-19T03:14:23.730Z,77.80
2023-05-19T03:16:51.332Z,77.30
2023-05-19T03:19:18.685Z,77.10
2023-05-19T03:21:46.269Z,77.30
2023-05-19T03:24:13.697Z,77.30
2023-05-19T03:26:42.001Z,77.40
2023-05-19T03:29:09.142Z,78.20
2023-05-19T03:31:36.268Z,78.20
2023-05-19T03:34:03.457Z,78.10
2023-05-19T03:36:32.155Z,78.30
2023-05-19T03:38:59.476Z,78.40
2023-05-19T03:41:26.592Z,78.30
2023-05-19T03:43:53.707Z,78.10
2023-05-19T03:46:21.143Z,77.90
2023-05-19T03:48:48.368Z,77.90
2023-05-19T03:51:15.509Z,77.80
2023-05-19T03:53:42.614Z,77.90
2023-05-19T03:56:13.523Z,78.10
2023-05-19T03:58:44.260Z,77.60
2023-05-19T04:01:11.559Z,77.30
2023-05-19T04:03:38.732Z,77.00
2023-05-19T04:06:06.131Z,76.90
2023-05-19T04:08:33.249Z,76.80
2023-05-19T04:11:00.440Z,76.60
2023-05-19T04:13:27.557Z,76.50
2023-05-19T04:15:54.715Z,76.60
2023-05-19T04:18:21.876Z,76.60
2023-05-19T04:20:49.050Z,76.50
2023-05-19T04:23:16.187Z,76.40
2023-05-19T04:25:43.409Z,76.30
2023-05-19T04:28:10.518Z,76.20
2023-05-19T04:30:38.548Z,76.80
2023-05-19T04:33:05.855Z,76.70
2023-05-19T04:35:33.082Z,76.60
2023-05-19T04:38:01.585Z,76.90
2023-05-19T04:40:31.097Z,76.90
2023-05-19T04:42:58.961Z,76.90
2023-05-19T04:45:26.095Z,76.90
2023-05-19T04:47:57.801Z,76.90
2023-05-19T04:50:25.265Z,77.40
2023-05-19T04:52:52.407Z,76.70
2023-05-19T04:55:19.571Z,77.20
2023-05-19T04:57:46.901Z,76.70
2023-05-19T05:00:14.660Z,76.90
2023-05-19T05:02:42.832Z,76.90
2023-05-19T05:05:10.125Z,76.70
2023-05-19T05:07:37.274Z,76.70
2023-05-19T05:10:05.087Z,76.50
2023-05-19T05:12:32.969Z,76.60
2023-05-19T05:15:00.553Z,76.70
2023-05-19T05:17:28.249Z,76.70
2023-05-19T05:19:55.710Z,76.70
2023-05-19T05:22:23.175Z,76.80
2023-05-19T05:24:50.798Z,77.20
2023-05-19T05:27:17.994Z,77.40
2023-05-19T05:29:45.171Z,77.70
2023-05-19T05:32:12.378Z,77.00
2023-05-19T05:34:40.945Z,76.90
2023-05-19T05:37:08.109Z,76.90
2023-05-19T05:39:35.519Z,76.80
2023-05-19T05:42:02.687Z,76.70
2023-05-19T05:44:30.412Z,76.60
2023-05-19T05:46:57.858Z,76.50
2023-05-19T05:49:25.182Z,76.40
2023-05-19T05:52:05.172Z,76.50
2023-05-19T05:54:33.390Z,76.30
2023-05-19T05:57:02.409Z,76.40
2023-05-19T05:59:29.533Z,76.50
2023-05-19T06:01:58.414Z,76.50
2023-05-19T06:04:25.811Z,76.40
2023-05-19T06:06:53.329Z,76.30
2023-05-19T06:09:20.428Z,76.70
2023-05-19T06:11:47.534Z,76.10
2023-05-19T06:14:14.623Z,75.40
2023-05-19T06:16:41.804Z,75.90
2023-05-19T06:19:09.021Z,76.20
2023-05-19T06:21:36.172Z,76.20
2023-05-19T06:24:03.381Z,76.10
2023-05-19T06:26:30.485Z,76.10
2023-05-19T06:28:57.585Z,76.00
2023-05-19T06:31:26.440Z,75.50
2023-05-19T06:33:53.728Z,75.30
2023-05-19T06:36:21.125Z,74.10
2023-05-19T06:38:48.372Z,74.10
2023-05-19T06:41:15.522Z,75.20
2023-05-19T06:43:42.968Z,74.60
2023-05-19T06:46:10.695Z,74.90
2023-05-19T06:48:37.805Z,75.30
2023-05-19T06:51:05.310Z,75.30
2023-05-19T06:53:33.930Z,75.80
2023-05-19T06:56:01.038Z,76.20
2023-05-19T06:58:28.464Z,76.70
2023-05-19T07:00:55.749Z,76.70
2023-05-19T07:03:22.964Z,76.70
2023-05-19T07:05:50.361Z,76.80
2023-05-19T07:08:17.467Z,76.90
2023-05-19T07:10:44.539Z,77.20
2023-05-19T07:13:11.635Z,77.10
2023-05-19T07:15:38.778Z,77.40
2023-05-19T07:18:06.070Z,77.70
2023-05-19T07:20:33.465Z,77.60
2023-05-19T07:23:02.581Z,77.90
2023-05-19T07:25:30.525Z,77.80
2023-05-19T07:27:57.774Z,77.70
2023-05-19T07:30:27.477Z,76.10
2023-05-19T07:32:54.712Z,75.00
2023-05-19T07:35:25.271Z,74.70
2023-05-19T07:37:52.645Z,75.60
2023-05-19T07:40:19.807Z,75.90
2023-05-19T07:42:47.992Z,76.30
2023-05-19T07:45:15.134Z,76.50
2023-05-19T07:47:42.295Z,76.60
2023-05-19T07:50:09.590Z,76.40
2023-05-19T07:52:36.708Z,76.40
2023-05-19T07:55:04.010Z,76.40
2023-05-19T07:57:32.308Z,76.50
2023-05-19T07:59:59.473Z,76.50
2023-05-19T08:02:26.637Z,76.40
2023-05-19T08:04:54.488Z,76.50
2023-05-19T08:07:21.766Z,76.50
2023-05-19T08:09:48.887Z,76.40
2023-05-19T08:12:15.965Z,76.40
2023-05-19T08:14:43.093Z,76.50
2023-05-19T08:17:10.196Z,76.40
2023-05-19T08:19:38.051Z,76.50
2023-05-19T08:22:05.284Z,76.40
2023-05-19T08:24:33.779Z,76.30
2023-05-19T08:27:00.981Z,76.80
2023-05-19T08:29:28.124Z,76.50
2023-05-19T08:31:55.436Z,76.30
2023-05-19T08:34:22.841Z,76.40
2023-05-19T08:36:50.293Z,76.30
2023-05-19T08:39:19.542Z,76.10
2023-05-19T08:41:46.646Z,76.10
2023-05-19T08:44:13.794Z,75.90
2023-05-19T08:46:41.176Z,75.70
2023-05-19T08:49:12.949Z,75.60
2023-05-19T08:52:02.362Z,75.70
2023-05-19T08:54:38.179Z,75.70
2023-05-19T08:57:06.131Z,76.60
2023-05-19T08:59:34.661Z,72.50
2023-05-19T09:02:02.736Z,74.30
2023-05-19T09:04:30.613Z,73.60
2023-05-19T09:06:58.869Z,74.50
2023-05-19T09:09:26.062Z,74.30
2023-05-19T09:11:53.261Z,74.00
2023-05-19T09:14:20.532Z,73.80
2023-05-19T09:16:50.875Z,74.40
2023-05-19T09:19:18.545Z,72.60
2023-05-19T09:21:46.239Z,73.20
2023-05-19T09:24:13.385Z,74.20
2023-05-19T09:26:42.436Z,73.70
2023-05-19T09:29:17.255Z,74.50
2023-05-19T09:31:50.227Z,74.30
2023-05-19T09:34:18.429Z,74.20
2023-05-19T09:36:49.356Z,73.60
2023-05-19T09:39:17.840Z,73.50
2023-05-19T09:41:46.030Z,73.80
2023-05-19T09:44:23.476Z,73.50
2023-05-19T09:46:51.822Z,74.60
2023-05-19T09:49:20.912Z,75.00
2023-05-19T09:51:55.691Z,77.50
2023-05-19T09:54:24.065Z,78.90
2023-05-19T09:57:03.530Z,79.70
2023-05-19T09:59:33.424Z,80.10
2023-05-19T10:02:02.312Z,80.70
2023-05-19T10:04:31.032Z,80.70
2023-05-19T10:07:05.318Z,80.60
2023-05-19T10:09:33.987Z,80.40
2023-05-19T10:12:02.356Z,80.40
2023-05-19T10:14:29.970Z,80.50
2023-05-19T10:16:58.727Z,80.50
2023-05-19T10:19:27.667Z,80.40
2023-05-19T10:21:55.746Z,80.40
2023-05-19T10:24:23.109Z,80.20
2023-05-19T10:27:01.152Z,80.10
2023-05-19T10:29:31.793Z,80.20
2023-05-19T10:32:04.430Z,80.00
2023-05-19T10:34:57.979Z,80.00
2023-05-19T10:37:40.709Z,79.90
2023-05-19T10:40:36.844Z,79.90
2023-05-19T10:43:19.101Z,80.00
2023-05-19T10:45:51.808Z,80.00
2023-05-19T10:48:24.896Z,80.10
2023-05-19T10:50:56.368Z,80.10
2023-05-19T10:53:31.139Z,80.00
2023-05-19T10:56:03.628Z,79.90
2023-05-19T10:58:40.733Z,79.90
2023-05-19T11:01:22.097Z,80.00
2023-05-19T11:03:54.217Z,79.90
2023-05-19T11:06:38.603Z,80.00
2023-05-19T11:09:08.875Z,79.90
2023-05-19T11:11:52.568Z,79.80
2023-05-19T11:14:28.067Z,79.70
2023-05-19T11:16:59.686Z,79.70
2023-05-19T11:19:35.155Z,79.70
2023-05-19T11:22:13.563Z,79.70
2023-05-19T11:24:45.142Z,79.90
2023-05-19T11:27:20.660Z,79.80
2023-05-19T11:29:48.662Z,79.70
2023-05-19T11:32:16.317Z,79.60
2023-05-19T11:34:44.660Z,79.70
2023-05-19T11:37:12.079Z,79.50
2023-05-19T11:39:40.566Z,79.20
2023-05-19T11:42:11.126Z,79.70
2023-05-19T11:44:38.534Z,79.50
2023-05-19T11:47:06.141Z,79.30
2023-05-19T11:49:33.382Z,79.30
2023-05-19T11:52:02.213Z,79.30
2023-05-19T11:54:33.626Z,79.50
2023-05-19T11:57:02.818Z,79.50
2023-05-19T11:59:35.778Z,79.90
2023-05-19T12:02:17.874Z,80.50
2023-05-19T12:04:45.797Z,80.30
2023-05-19T12:07:13.717Z,80.00
2023-05-19T12:09:40.887Z,80.00
2023-05-19T12:12:08.207Z,79.70
2023-05-19T12:14:35.876Z,79.60
2023-05-19T12:17:13.838Z,79.60
2023-05-19T12:19:43.965Z,79.60
2023-05-19T12:22:11.736Z,79.50
2023-05-19T12:24:40.129Z,79.40
2023-05-19T12:27:20.994Z,79.30
2023-05-19T12:29:52.262Z,79.30
2023-05-19T12:32:26.437Z,79.50
2023-05-19T12:34:56.378Z,79.50
2023-05-19T12:37:27.608Z,79.60
2023-05-19T12:39:56.141Z,79.50
2023-05-19T12:42:24.014Z,79.40
2023-05-19T12:44:52.482Z,79.40
2023-05-19T12:47:20.273Z,79.40
2023-05-19T12:49:57.051Z,79.20
2023-05-19T12:52:24.419Z,79.20
2023-05-19T12:55:02.119Z,79.30
2023-05-19T12:57:32.359Z,79.10
2023-05-19T13:00:12.877Z,79.10
2023-05-19T13:03:06.015Z,79.20
2023-05-19T13:05:39.151Z,79.20
2023-05-19T13:08:08.196Z,79.20
2023-05-19T13:10:37.123Z,79.10
2023-05-19T13:13:05.210Z,79.10
2023-05-19T13:15:37.624Z,79.10
2023-05-19T13:18:10.956Z,79.10
2023-05-19T13:20:40.359Z,79.10
2023-05-19T13:23:10.448Z,79.10
2023-05-19T13:25:38.095Z,79.10
2023-05-19T13:28:05.532Z,79.10
2023-05-19T13:30:34.522Z,79.10
2023-05-19T13:33:02.524Z,78.90
2023-05-19T13:35:30.680Z,79.10
2023-05-19T13:37:57.892Z,78.80
2023-05-19T13:40:25.908Z,78.90
2023-05-19T13:42:53.071Z,78.80
2023-05-19T13:45:20.278Z,78.70
2023-05-19T13:47:47.464Z,78.70
2023-05-19T13:50:14.640Z,79.00
2023-05-19T13:52:41.957Z,79.10
2023-05-19T13:55:09.361Z,79.10
2023-05-19T13:57:36.909Z,79.10
2023-05-19T14:00:05.737Z,79.10
2023-05-19T14:02:33.781Z,78.90
2023-05-19T14:05:00.984Z,78.90
2023-05-19T14:07:28.252Z,78.90
2023-05-19T14:09:55.371Z,78.70
2023-05-19T14:12:25.585Z,78.60
2023-05-19T14:14:58.819Z,78.70
2023-05-19T14:17:28.142Z,78.60
2023-05-19T14:19:55.690Z,78.60
2023-05-19T14:22:22.842Z,78.60
2023-05-19T14:24:49.946Z,78.80
2023-05-19T14:27:17.070Z,78.60
2023-05-19T14:29:44.224Z,78.70
2023-05-19T14:32:11.399Z,78.90
2023-05-19T14:34:38.498Z,78.80
2023-05-19T14:37:05.658Z,78.90
2023-05-19T14:39:32.807Z,79.10
2023-05-19T14:41:59.934Z,79.20
2023-05-19T14:44:31.662Z,79.30
2023-05-19T14:47:01.037Z,79.30
2023-05-19T14:49:28.268Z,79.40
2023-05-19T14:51:57.188Z,79.40
2023-05-19T14:54:24.320Z,79.40
2023-05-19T14:56:51.481Z,79.50
2023-05-19T14:59:18.576Z,79.40
2023-05-19T15:01:45.864Z,79.50
2023-05-19T15:04:13.254Z,79.50
2023-05-19T15:06:40.583Z,79.50
2023-05-19T15:09:08.051Z,79.40
2023-05-19T15:11:35.182Z,79.40
2023-05-19T15:14:02.282Z,79.40
2023-05-19T15:16:30.062Z,79.70
2023-05-19T15:18:57.290Z,79.80
2023-05-19T15:21:24.460Z,79.50
2023-05-19T15:23:51.609Z,79.50
2023-05-19T15:26:18.732Z,79.60
2023-05-19T15:28:45.863Z,79.70
2023-05-19T15:31:13.101Z,79.60
2023-05-19T15:33:40.350Z,79.90
2023-05-19T15:36:07.570Z,79.70
2023-05-19T15:38:37.468Z,79.80
2023-05-19T15:41:08.432Z,80.00
2023-05-19T15:43:35.780Z,79.90
2023-05-19T15:46:04.847Z,79.90
2023-05-19T15:48:32.340Z,80.10
2023-05-19T15:50:59.813Z,80.10
2023-05-19T15:53:27.035Z,80.20
2023-05-19T15:55:54.193Z,80.30
2023-05-19T15:58:21.314Z,80.20
2023-05-19T16:00:48.542Z,80.20
2023-05-19T16:03:15.814Z,80.20
2023-05-19T16:05:43.027Z,80.40
2023-05-19T16:08:10.276Z,80.30
2023-05-19T16:10:37.375Z,80.20
2023-05-19T16:13:04.558Z,80.40
2023-05-19T16:15:31.708Z,80.70
2023-05-19T16:17:58.896Z,80.90
2023-05-19T16:20:28.014Z,81.00
2023-05-19T16:22:55.753Z,80.80
2023-05-19T16:25:23.545Z,80.90
2023-05-19T16:27:51.240Z,80.90
2023-05-19T16:30:18.615Z,81.00
2023-05-19T16:32:45.787Z,81.10
2023-05-19T16:35:12.919Z,81.20
2023-05-19T16:37:40.315Z,81.20
2023-05-19T16:40:08.112Z,81.40
2023-05-19T16:42:35.300Z,81.40
2023-05-19T16:45:02.541Z,81.70
2023-05-19T16:47:29.758Z,82.00
2023-05-19T16:49:56.868Z,82.20
2023-05-19T16:52:24.262Z,82.20
2023-05-19T16:54:51.348Z,82.30
2023-05-19T16:57:18.522Z,82.50
2023-05-19T16:59:45.736Z,82.50
2023-05-19T17:02:12.953Z,82.60
2023-05-19T17:04:40.163Z,83.10
2023-05-19T17:07:07.250Z,83.10
2023-05-19T17:09:34.455Z,83.40
2023-05-19T17:12:01.562Z,83.40
2023-05-19T17:14:28.742Z,83.50
2023-05-19T17:16:55.905Z,83.50
2023-05-19T17:19:23.175Z,83.70
2023-05-19T17:21:50.584Z,83.90
2023-05-19T17:24:17.689Z,85.60
2023-05-19T17:26:44.836Z,86.10
2023-05-19T17:29:14.802Z,85.50
2023-05-19T17:31:42.222Z,87.30
2023-05-19T17:34:09.349Z,86.70
2023-05-19T17:36:36.453Z,86.20
2023-05-19T17:39:03.728Z,86.10
2023-05-19T17:41:30.922Z,87.70
2023-05-19T17:43:58.058Z,86.80
2023-05-19T17:46:25.584Z,86.10
2023-05-19T17:48:52.782Z,86.90
2023-05-19T17:51:21.057Z,87.50
2023-05-19T17:53:49.413Z,87.70
2023-05-19T17:56:19.451Z,87.50
2023-05-19T17:58:47.007Z,88.10
2023-05-19T18:01:14.860Z,87.50
2023-05-19T18:03:48.909Z,87.30
2023-05-19T18:06:19.608Z,86.70
2023-05-19T18:08:50.326Z,87.60
2023-05-19T18:11:18.323Z,86.80
2023-05-19T18:13:45.636Z,87.00
2023-05-19T18:16:13.091Z,86.70
2023-05-19T18:18:43.452Z,86.80
2023-05-19T18:21:17.545Z,86.70
2023-05-19T18:23:45.513Z,86.90
2023-05-19T18:26:15.855Z,86.70
2023-05-19T18:28:43.416Z,86.70
2023-05-19T18:31:15.642Z,86.60
2023-05-19T18:33:44.180Z,86.50
2023-05-19T18:36:11.311Z,86.50
2023-05-19T18:38:38.397Z,86.70
2023-05-19T18:41:09.218Z,86.50
2023-05-19T18:43:36.343Z,86.60
2023-05-19T18:46:03.547Z,86.40
2023-05-19T18:48:31.940Z,86.70
2023-05-19T18:50:59.683Z,86.90
2023-05-19T18:53:26.846Z,86.50
2023-05-19T18:55:54.032Z,86.70
2023-05-19T18:58:21.520Z,86.70
2023-05-19T19:00:48.699Z,86.50
2023-05-19T19:03:15.873Z,86.70
2023-05-19T19:05:44.254Z,86.60
2023-05-19T19:08:11.459Z,86.70
2023-05-19T19:10:40.595Z,86.60
2023-05-19T19:13:07.772Z,86.60
2023-05-19T19:15:34.913Z,86.60
2023-05-19T19:18:02.179Z,86.20
2023-05-19T19:20:29.396Z,86.40
2023-05-19T19:22:58.591Z,86.40
2023-05-19T19:25:25.702Z,86.20
2023-05-19T19:27:52.798Z,86.40
2023-05-19T19:30:19.932Z,86.40
2023-05-19T19:32:47.078Z,86.60
2023-05-19T19:35:15.814Z,86.60
2023-05-19T19:37:42.921Z,86.90
2023-05-19T19:40:10.514Z,86.70
2023-05-19T19:42:38.408Z,86.80
2023-05-19T19:45:06.676Z,86.60
2023-05-19T19:47:33.882Z,86.50
2023-05-19T19:50:02.563Z,86.60
2023-05-19T19:52:29.669Z,86.60
2023-05-19T19:54:57.266Z,86.70
2023-05-19T19:57:24.647Z,86.80
2023-05-19T19:59:55.058Z,86.50
2023-05-19T20:02:22.526Z,86.30
2023-05-19T20:04:49.789Z,86.40
2023-05-19T20:07:20.783Z,86.20
2023-05-19T20:09:49.548Z,86.10
2023-05-19T20:12:16.692Z,86.60
2023-05-19T20:14:43.819Z,86.20
2023-05-19T20:17:10.936Z,85.90
2023-05-19T20:19:38.044Z,86.10
2023-05-19T20:22:05.469Z,86.00
2023-05-19T20:24:32.579Z,85.90
2023-05-19T20:26:59.705Z,85.80
2023-05-19T20:29:27.144Z,85.70
2023-05-19T20:31:55.567Z,85.70
2023-05-19T20:34:24.441Z,85.70
2023-05-19T20:36:51.611Z,85.60
2023-05-19T20:39:18.727Z,85.80
2023-05-19T20:41:45.964Z,85.30
2023-05-19T20:44:13.199Z,85.80
2023-05-19T20:46:40.401Z,85.80
2023-05-19T20:49:07.530Z,86.70
2023-05-19T20:51:34.688Z,85.80
2023-05-19T20:54:01.785Z,86.20
2023-05-19T20:56:28.915Z,86.10
2023-05-19T20:58:56.014Z,86.00
2023-05-19T21:01:25.204Z,85.50
2023-05-19T21:03:52.575Z,86.10
2023-05-19T21:06:19.750Z,85.20
2023-05-19T21:08:46.861Z,85.20
2023-05-19T21:11:14.003Z,86.10
2023-05-19T21:13:41.132Z,85.90
2023-05-19T21:16:08.322Z,85.40
2023-05-19T21:18:35.456Z,85.90
2023-05-19T21:21:04.018Z,85.60
2023-05-19T21:23:31.230Z,85.70
2023-05-19T21:25:59.548Z,85.50
2023-05-19T21:28:26.689Z,86.00
2023-05-19T21:30:53.828Z,85.90
2023-05-19T21:33:20.985Z,86.20
2023-05-19T21:35:48.136Z,85.90
2023-05-19T21:38:23.536Z,86.20
2023-05-19T21:40:52.745Z,86.50
2023-05-19T21:43:19.913Z,86.60
2023-05-19T21:45:47.058Z,86.00
2023-05-19T21:48:14.218Z,86.90
2023-05-19T21:50:41.331Z,86.70
2023-05-19T21:53:08.527Z,86.80
2023-05-19T21:55:35.662Z,86.40
2023-05-19T21:58:03.019Z,87.00
2023-05-19T22:00:30.271Z,86.60
2023-05-19T22:02:57.450Z,86.40
2023-05-19T22:05:24.603Z,86.70
2023-05-19T22:07:51.726Z,86.70
2023-05-19T22:10:18.957Z,86.10
2023-05-19T22:12:46.148Z,85.90
2023-05-19T22:15:14.187Z,86.00
2023-05-19T22:17:42.113Z,86.80
2023-05-19T22:20:09.658Z,86.00
2023-05-19T22:22:36.756Z,86.10
2023-05-19T22:25:04.632Z,85.90
2023-05-19T22:27:31.915Z,85.60
2023-05-19T22:30:01.945Z,85.70
2023-05-19T22:32:30.318Z,86.10
2023-05-19T22:34:57.443Z,85.40
2023-05-19T22:37:24.583Z,85.60
2023-05-19T22:39:51.748Z,85.90
2023-05-19T22:42:18.911Z,86.50
2023-05-19T22:44:46.141Z,86.50
2023-05-19T22:47:13.883Z,86.20
2023-05-19T22:49:42.191Z,86.30
2023-05-19T22:52:10.899Z,86.50
2023-05-19T22:54:38.360Z,86.50
2023-05-19T22:57:05.808Z,86.50
2023-05-19T22:59:33.019Z,86.70
2023-05-19T23:02:00.166Z,87.00
2023-05-19T23:04:27.414Z,86.90
2023-05-19T23:06:54.669Z,86.90
2023-05-19T23:09:21.908Z,86.90
2023-05-19T23:11:49.961Z,86.60
2023-05-19T23:14:18.417Z,87.10
2023-05-19T23:16:46.006Z,86.30
2023-05-19T23:19:13.281Z,86.40
2023-05-19T23:21:40.965Z,86.60
2023-05-19T23:24:08.057Z,86.70
2023-05-19T23:26:35.363Z,86.80
2023-05-19T23:29:02.457Z,86.90
2023-05-19T23:31:29.604Z,86.80
2023-05-19T23:33:56.797Z,87.00
2023-05-19T23:36:23.938Z,87.20
2023-05-19T23:38:51.064Z,88.10
2023-05-19T23:41:18.159Z,87.30
2023-05-19T23:43:45.301Z,87.30
2023-05-19T23:46:12.514Z,88.00
2023-05-19T23:48:39.853Z,87.50
2023-05-19T23:51:07.008Z,87.30
2023-05-19T23:53:34.088Z,87.30
2023-05-19T23:56:01.280Z,87.30
2023-05-19T23:58:28.395Z,87.30
